sensor_id;sensor_type;location;lat;lon;timestamp;temperature;humidity
27848;DHT22;15212;48.830;8.730;2023-01-19T00:01:33;-1.80;99.90
27848;DHT22;15212;48.830;8.730;2023-01-19T00:04:01;-1.80;99.90
27848;DHT22;15212;48.830;8.730;2023-01-19T00:06:30;-1.80;99.90
27848;DHT22;15212;48.830;8.730;2023-01-19T00:08:58;-1.80;99.90
27848;DHT22;15212;48.830;8.730;2023-01-19T00:11:26;-1.80;99.90
27848;DHT22;15212;48.830;8.730;2023-01-19T00:13:55;-1.90;99.90
27848;DHT22;15212;48.830;8.730;2023-01-19T00:16:24;-1.90;99.90
27848;DHT22;15212;48.830;8.730;2023-01-19T00:18:52;-1.90;99.90
27848;DHT22;15212;48.830;8.730;2023-01-19T00:21:21;-1.90;99.90
27848;DHT22;15212;48.830;8.730;2023-01-19T00:23:50;-2.00;99.90
27848;DHT22;15212;48.830;8.730;2023-01-19T00:26:19;-2.00;99.90
27848;DHT22;15212;48.830;8.730;2023-01-19T00:28:47;-2.00;99.90
27848;DHT22;15212;48.830;8.730;2023-01-19T00:31:16;-2.00;99.90
27848;DHT22;15212;48.830;8.730;2023-01-19T00:33:47;-2.10;99.90
27848;DHT22;15212;48.830;8.730;2023-01-19T00:36:17;-2.20;99.90
27848;DHT22;15212;48.830;8.730;2023-01-19T00:38:45;-2.20;99.90
27848;DHT22;15212;48.830;8.730;2023-01-19T00:41:14;-2.30;99.90
27848;DHT22;15212;48.830;8.730;2023-01-19T00:43:43;-2.30;99.90
27848;DHT22;15212;48.830;8.730;2023-01-19T00:46:11;-2.30;99.90
27848;DHT22;15212;48.830;8.730;2023-01-19T00:48:40;-2.30;99.90
27848;DHT22;15212;48.830;8.730;2023-01-19T00:51:08;-2.40;99.90
27848;DHT22;15212;48.830;8.730;2023-01-19T00:53:36;-2.40;99.90
27848;DHT22;15212;48.830;8.730;2023-01-19T00:56:05;-2.40;99.90
27848;DHT22;15212;48.830;8.730;2023-01-19T00:58:34;-2.40;99.90
27848;DHT22;15212;48.830;8.730;2023-01-19T01:01:02;-2.50;99.90
27848;DHT22;15212;48.830;8.730;2023-01-19T01:03:32;-2.50;99.90
27848;DHT22;15212;48.830;8.730;2023-01-19T01:06:00;-2.60;99.90
27848;DHT22;15212;48.830;8.730;2023-01-19T01:08:29;-2.60;99.90
27848;DHT22;15212;48.830;8.730;2023-01-19T01:10:59;-2.60;99.90
27848;DHT22;15212;48.830;8.730;2023-01-19T01:13:27;-2.60;99.90
27848;DHT22;15212;48.830;8.730;2023-01-19T01:15:56;-2.60;99.90
27848;DHT22;15212;48.830;8.730;2023-01-19T01:18:24;-2.60;99.90
27848;DHT22;15212;48.830;8.730;2023-01-19T01:21:01;-2.70;99.90
27848;DHT22;15212;48.830;8.730;2023-01-19T01:23:30;-2.70;99.90
27848;DHT22;15212;48.830;8.730;2023-01-19T01:25:59;-2.70;99.90
27848;DHT22;15212;48.830;8.730;2023-01-19T01:28:27;-2.70;99.90
27848;DHT22;15212;48.830;8.730;2023-01-19T01:30:56;-2.70;99.90
27848;DHT22;15212;48.830;8.730;2023-01-19T01:33:24;-2.70;99.90
27848;DHT22;15212;48.830;8.730;2023-01-19T01:35:53;-2.70;99.90
27848;DHT22;15212;48.830;8.730;2023-01-19T01:38:21;-2.70;99.90
27848;DHT22;15212;48.830;8.730;2023-01-19T01:40:50;-2.70;99.90
27848;DHT22;15212;48.830;8.730;2023-01-19T01:43:19;-2.70;99.90
27848;DHT22;15212;48.830;8.730;2023-01-19T01:45:47;-2.70;99.90
27848;DHT22;15212;48.830;8.730;2023-01-19T01:48:24;-2.70;99.90
27848;DHT22;15212;48.830;8.730;2023-01-19T01:51:01;-2.70;99.90
27848;DHT22;15212;48.830;8.730;2023-01-19T01:56:36;-2.80;99.90
27848;DHT22;15212;48.830;8.730;2023-01-19T01:59:18;-2.80;99.90
27848;DHT22;15212;48.830;8.730;2023-01-19T02:01:48;-2.80;99.90
27848;DHT22;15212;48.830;8.730;2023-01-19T02:04:33;-2.80;99.90
27848;DHT22;15212;48.830;8.730;2023-01-19T02:07:02;-2.80;99.90
27848;DHT22;15212;48.830;8.730;2023-01-19T02:09:48;-2.80;99.90
27848;DHT22;15212;48.830;8.730;2023-01-19T02:12:34;-2.70;99.90
27848;DHT22;15212;48.830;8.730;2023-01-19T02:15:20;-2.70;99.90
27848;DHT22;15212;48.830;8.730;2023-01-19T02:17:49;-2.70;99.90
27848;DHT22;15212;48.830;8.730;2023-01-19T02:20:18;-2.60;99.90
27848;DHT22;15212;48.830;8.730;2023-01-19T02:22:49;-2.60;99.90
27848;DHT22;15212;48.830;8.730;2023-01-19T02:25:19;-2.50;99.90
27848;DHT22;15212;48.830;8.730;2023-01-19T02:27:48;-2.50;99.90
27848;DHT22;15212;48.830;8.730;2023-01-19T02:30:17;-2.50;99.90
27848;DHT22;15212;48.830;8.730;2023-01-19T02:32:46;-2.40;99.90
27848;DHT22;15212;48.830;8.730;2023-01-19T02:35:15;-2.40;99.90
27848;DHT22;15212;48.830;8.730;2023-01-19T02:37:44;-2.40;99.90
27848;DHT22;15212;48.830;8.730;2023-01-19T02:40:14;-2.40;99.90
27848;DHT22;15212;48.830;8.730;2023-01-19T02:42:49;-2.40;99.90
27848;DHT22;15212;48.830;8.730;2023-01-19T02:45:21;-2.50;99.90
27848;DHT22;15212;48.830;8.730;2023-01-19T02:47:51;-2.50;99.90
27848;DHT22;15212;48.830;8.730;2023-01-19T02:50:41;-2.60;99.90
27848;DHT22;15212;48.830;8.730;2023-01-19T02:59:20;-2.70;99.90
27848;DHT22;15212;48.830;8.730;2023-01-19T03:02:22;-2.70;99.90
27848;DHT22;15212;48.830;8.730;2023-01-19T03:04:58;-2.70;99.90
27848;DHT22;15212;48.830;8.730;2023-01-19T03:07:56;-2.70;99.90
27848;DHT22;15212;48.830;8.730;2023-01-19T03:14:05;-2.60;99.90
27848;DHT22;15212;48.830;8.730;2023-01-19T03:19:09;-2.50;99.90
27848;DHT22;15212;48.830;8.730;2023-01-19T03:21:41;-2.40;99.90
27848;DHT22;15212;48.830;8.730;2023-01-19T03:24:13;-2.30;99.90
27848;DHT22;15212;48.830;8.730;2023-01-19T03:26:45;-2.30;99.90
27848;DHT22;15212;48.830;8.730;2023-01-19T03:29:17;-2.30;99.90
27848;DHT22;15212;48.830;8.730;2023-01-19T03:31:48;-2.30;99.90
27848;DHT22;15212;48.830;8.730;2023-01-19T03:34:18;-2.30;99.90
27848;DHT22;15212;48.830;8.730;2023-01-19T03:36:52;-2.30;99.90
27848;DHT22;15212;48.830;8.730;2023-01-19T03:39:22;-2.30;99.90
27848;DHT22;15212;48.830;8.730;2023-01-19T03:42:00;-2.30;99.90
27848;DHT22;15212;48.830;8.730;2023-01-19T03:44:26;-2.40;99.90
27848;DHT22;15212;48.830;8.730;2023-01-19T03:46:57;-2.40;99.90
27848;DHT22;15212;48.830;8.730;2023-01-19T03:49:25;-2.40;99.90
27848;DHT22;15212;48.830;8.730;2023-01-19T03:51:56;-2.40;99.90
27848;DHT22;15212;48.830;8.730;2023-01-19T03:54:25;-2.50;99.90
27848;DHT22;15212;48.830;8.730;2023-01-19T03:56:54;-2.50;99.90
27848;DHT22;15212;48.830;8.730;2023-01-19T03:59:22;-2.60;99.90
27848;DHT22;15212;48.830;8.730;2023-01-19T04:01:51;-2.60;99.90
27848;DHT22;15212;48.830;8.730;2023-01-19T04:04:20;-2.60;99.90
27848;DHT22;15212;48.830;8.730;2023-01-19T04:06:48;-2.60;99.90
27848;DHT22;15212;48.830;8.730;2023-01-19T04:09:17;-2.70;99.90
27848;DHT22;15212;48.830;8.730;2023-01-19T04:11:45;-2.60;99.90
27848;DHT22;15212;48.830;8.730;2023-01-19T04:14:13;-2.60;99.90
27848;DHT22;15212;48.830;8.730;2023-01-19T04:16:42;-2.60;99.90
27848;DHT22;15212;48.830;8.730;2023-01-19T04:19:10;-2.60;99.90
27848;DHT22;15212;48.830;8.730;2023-01-19T04:21:39;-2.60;99.90
27848;DHT22;15212;48.830;8.730;2023-01-19T04:24:09;-2.60;99.90
27848;DHT22;15212;48.830;8.730;2023-01-19T04:26:37;-2.60;99.90
27848;DHT22;15212;48.830;8.730;2023-01-19T04:29:06;-2.60;99.90
27848;DHT22;15212;48.830;8.730;2023-01-19T04:31:34;-2.60;99.90
27848;DHT22;15212;48.830;8.730;2023-01-19T04:34:03;-2.60;99.90
27848;DHT22;15212;48.830;8.730;2023-01-19T04:36:31;-2.60;99.90
27848;DHT22;15212;48.830;8.730;2023-01-19T04:39:00;-2.60;99.90
27848;DHT22;15212;48.830;8.730;2023-01-19T04:41:28;-2.60;99.90
27848;DHT22;15212;48.830;8.730;2023-01-19T04:43:57;-2.60;99.90
27848;DHT22;15212;48.830;8.730;2023-01-19T04:46:26;-2.60;99.90
27848;DHT22;15212;48.830;8.730;2023-01-19T04:48:54;-2.60;99.90
27848;DHT22;15212;48.830;8.730;2023-01-19T04:51:22;-2.60;99.90
27848;DHT22;15212;48.830;8.730;2023-01-19T04:53:51;-2.60;99.90
27848;DHT22;15212;48.830;8.730;2023-01-19T04:56:19;-2.60;99.90
27848;DHT22;15212;48.830;8.730;2023-01-19T04:58:48;-2.60;99.90
27848;DHT22;15212;48.830;8.730;2023-01-19T05:01:16;-2.60;99.90
27848;DHT22;15212;48.830;8.730;2023-01-19T05:03:45;-2.70;99.90
27848;DHT22;15212;48.830;8.730;2023-01-19T05:06:13;-2.60;99.90
27848;DHT22;15212;48.830;8.730;2023-01-19T05:08:41;-2.60;99.90
27848;DHT22;15212;48.830;8.730;2023-01-19T05:11:10;-2.60;99.90
27848;DHT22;15212;48.830;8.730;2023-01-19T05:13:38;-2.60;99.90
27848;DHT22;15212;48.830;8.730;2023-01-19T05:16:07;-2.60;99.90
27848;DHT22;15212;48.830;8.730;2023-01-19T05:18:35;-2.60;99.90
27848;DHT22;15212;48.830;8.730;2023-01-19T05:21:03;-2.70;99.90
27848;DHT22;15212;48.830;8.730;2023-01-19T05:23:33;-2.70;99.90
27848;DHT22;15212;48.830;8.730;2023-01-19T05:26:02;-2.70;99.90
27848;DHT22;15212;48.830;8.730;2023-01-19T05:28:31;-2.70;99.90
27848;DHT22;15212;48.830;8.730;2023-01-19T05:31:00;-2.70;99.90
27848;DHT22;15212;48.830;8.730;2023-01-19T05:33:28;-2.70;99.90
27848;DHT22;15212;48.830;8.730;2023-01-19T05:35:57;-2.70;99.90
27848;DHT22;15212;48.830;8.730;2023-01-19T05:38:25;-2.70;99.90
27848;DHT22;15212;48.830;8.730;2023-01-19T05:40:57;-2.80;99.90
27848;DHT22;15212;48.830;8.730;2023-01-19T05:43:26;-2.80;99.90
27848;DHT22;15212;48.830;8.730;2023-01-19T05:45:54;-2.80;99.90
27848;DHT22;15212;48.830;8.730;2023-01-19T05:48:22;-2.80;99.90
27848;DHT22;15212;48.830;8.730;2023-01-19T05:50:55;-2.80;99.90
27848;DHT22;15212;48.830;8.730;2023-01-19T05:53:22;-2.90;99.90
27848;DHT22;15212;48.830;8.730;2023-01-19T05:55:51;-2.90;99.90
27848;DHT22;15212;48.830;8.730;2023-01-19T05:58:19;-3.00;99.90
27848;DHT22;15212;48.830;8.730;2023-01-19T06:00:48;-3.00;99.90
27848;DHT22;15212;48.830;8.730;2023-01-19T06:03:16;-3.10;99.90
27848;DHT22;15212;48.830;8.730;2023-01-19T06:05:45;-3.10;99.90
27848;DHT22;15212;48.830;8.730;2023-01-19T06:08:13;-3.10;99.90
27848;DHT22;15212;48.830;8.730;2023-01-19T06:10:41;-3.20;99.90
27848;DHT22;15212;48.830;8.730;2023-01-19T06:13:10;-3.30;99.90
27848;DHT22;15212;48.830;8.730;2023-01-19T06:15:38;-3.30;99.90
27848;DHT22;15212;48.830;8.730;2023-01-19T06:18:08;-3.30;99.90
27848;DHT22;15212;48.830;8.730;2023-01-19T06:20:40;-3.30;99.90
27848;DHT22;15212;48.830;8.730;2023-01-19T06:23:08;-3.30;99.90
27848;DHT22;15212;48.830;8.730;2023-01-19T06:25:37;-3.30;99.90
27848;DHT22;15212;48.830;8.730;2023-01-19T06:28:05;-3.30;99.90
27848;DHT22;15212;48.830;8.730;2023-01-19T06:30:33;-3.30;99.90
27848;DHT22;15212;48.830;8.730;2023-01-19T06:33:02;-3.30;99.90
27848;DHT22;15212;48.830;8.730;2023-01-19T06:35:30;-3.30;99.90
27848;DHT22;15212;48.830;8.730;2023-01-19T06:37:58;-3.30;99.90
27848;DHT22;15212;48.830;8.730;2023-01-19T06:40:27;-3.30;99.90
27848;DHT22;15212;48.830;8.730;2023-01-19T06:42:55;-3.30;99.90
27848;DHT22;15212;48.830;8.730;2023-01-19T06:45:24;-3.30;99.90
27848;DHT22;15212;48.830;8.730;2023-01-19T06:47:52;-3.30;99.90
27848;DHT22;15212;48.830;8.730;2023-01-19T06:50:20;-3.30;99.90
27848;DHT22;15212;48.830;8.730;2023-01-19T06:52:50;-3.40;99.90
27848;DHT22;15212;48.830;8.730;2023-01-19T06:55:19;-3.40;99.90
27848;DHT22;15212;48.830;8.730;2023-01-19T06:57:47;-3.50;99.90
27848;DHT22;15212;48.830;8.730;2023-01-19T07:00:17;-3.50;99.90
27848;DHT22;15212;48.830;8.730;2023-01-19T07:02:46;-3.40;99.90
27848;DHT22;15212;48.830;8.730;2023-01-19T07:05:15;-3.50;99.90
27848;DHT22;15212;48.830;8.730;2023-01-19T07:07:43;-3.50;99.90
27848;DHT22;15212;48.830;8.730;2023-01-19T07:10:12;-3.50;99.90
27848;DHT22;15212;48.830;8.730;2023-01-19T07:12:42;-3.50;99.90
27848;DHT22;15212;48.830;8.730;2023-01-19T07:15:18;-3.50;99.90
27848;DHT22;15212;48.830;8.730;2023-01-19T07:17:43;-3.50;99.90
27848;DHT22;15212;48.830;8.730;2023-01-19T07:20:13;-3.40;99.90
27848;DHT22;15212;48.830;8.730;2023-01-19T07:22:42;-3.40;99.90
27848;DHT22;15212;48.830;8.730;2023-01-19T07:25:13;-3.30;99.90
27848;DHT22;15212;48.830;8.730;2023-01-19T07:27:41;-3.30;99.90
27848;DHT22;15212;48.830;8.730;2023-01-19T07:30:10;-3.20;99.90
27848;DHT22;15212;48.830;8.730;2023-01-19T07:32:41;-3.20;99.90
27848;DHT22;15212;48.830;8.730;2023-01-19T07:35:10;-3.10;99.90
27848;DHT22;15212;48.830;8.730;2023-01-19T07:37:38;-3.10;99.90
27848;DHT22;15212;48.830;8.730;2023-01-19T07:40:07;-3.00;99.90
27848;DHT22;15212;48.830;8.730;2023-01-19T07:42:36;-3.00;99.90
27848;DHT22;15212;48.830;8.730;2023-01-19T07:45:04;-2.90;99.90
27848;DHT22;15212;48.830;8.730;2023-01-19T07:47:33;-2.90;99.90
27848;DHT22;15212;48.830;8.730;2023-01-19T07:50:01;-2.90;99.90
27848;DHT22;15212;48.830;8.730;2023-01-19T07:52:30;-2.80;99.90
27848;DHT22;15212;48.830;8.730;2023-01-19T07:54:58;-2.70;99.90
27848;DHT22;15212;48.830;8.730;2023-01-19T07:57:26;-2.60;99.90
27848;DHT22;15212;48.830;8.730;2023-01-19T07:59:55;-2.40;99.90
27848;DHT22;15212;48.830;8.730;2023-01-19T08:02:23;-2.40;99.90
27848;DHT22;15212;48.830;8.730;2023-01-19T08:04:52;-2.30;99.90
27848;DHT22;15212;48.830;8.730;2023-01-19T08:07:20;-2.20;99.90
27848;DHT22;15212;48.830;8.730;2023-01-19T08:09:48;-2.20;99.90
27848;DHT22;15212;48.830;8.730;2023-01-19T08:12:17;-2.10;99.90
27848;DHT22;15212;48.830;8.730;2023-01-19T08:14:45;-2.00;99.90
27848;DHT22;15212;48.830;8.730;2023-01-19T08:17:14;-1.80;99.90
27848;DHT22;15212;48.830;8.730;2023-01-19T08:19:42;-1.70;99.90
27848;DHT22;15212;48.830;8.730;2023-01-19T08:22:11;-1.60;99.90
27848;DHT22;15212;48.830;8.730;2023-01-19T08:24:39;-1.60;99.90
27848;DHT22;15212;48.830;8.730;2023-01-19T08:27:08;-1.60;99.90
27848;DHT22;15212;48.830;8.730;2023-01-19T08:29:36;-1.60;99.90
27848;DHT22;15212;48.830;8.730;2023-01-19T08:32:05;-1.70;99.90
27848;DHT22;15212;48.830;8.730;2023-01-19T08:34:33;-1.70;99.90
27848;DHT22;15212;48.830;8.730;2023-01-19T08:37:01;-1.70;99.90
27848;DHT22;15212;48.830;8.730;2023-01-19T08:39:30;-1.70;99.90
27848;DHT22;15212;48.830;8.730;2023-01-19T08:41:58;-1.70;99.90
27848;DHT22;15212;48.830;8.730;2023-01-19T08:44:27;-1.60;99.90
27848;DHT22;15212;48.830;8.730;2023-01-19T08:46:55;-1.40;99.90
27848;DHT22;15212;48.830;8.730;2023-01-19T08:49:24;-1.20;99.90
27848;DHT22;15212;48.830;8.730;2023-01-19T08:51:52;-1.10;99.90
27848;DHT22;15212;48.830;8.730;2023-01-19T08:54:21;-1.00;99.90
27848;DHT22;15212;48.830;8.730;2023-01-19T08:56:50;-0.90;99.90
27848;DHT22;15212;48.830;8.730;2023-01-19T08:59:18;-0.90;99.90
27848;DHT22;15212;48.830;8.730;2023-01-19T09:01:47;-0.80;99.90
27848;DHT22;15212;48.830;8.730;2023-01-19T09:04:15;-0.70;99.90
27848;DHT22;15212;48.830;8.730;2023-01-19T09:06:44;-0.70;99.90
27848;DHT22;15212;48.830;8.730;2023-01-19T09:09:12;-0.60;99.90
27848;DHT22;15212;48.830;8.730;2023-01-19T09:11:40;-0.50;99.90
27848;DHT22;15212;48.830;8.730;2023-01-19T09:14:09;-0.30;99.90
27848;DHT22;15212;48.830;8.730;2023-01-19T09:16:37;-0.20;99.90
27848;DHT22;15212;48.830;8.730;2023-01-19T09:19:06;-0.10;99.90
27848;DHT22;15212;48.830;8.730;2023-01-19T09:21:35;-0.10;99.90
27848;DHT22;15212;48.830;8.730;2023-01-19T09:24:04;-0.10;99.90
27848;DHT22;15212;48.830;8.730;2023-01-19T09:26:32;-0.10;99.90
27848;DHT22;15212;48.830;8.730;2023-01-19T09:29:02;0.00;99.90
27848;DHT22;15212;48.830;8.730;2023-01-19T09:31:30;0.00;99.90
27848;DHT22;15212;48.830;8.730;2023-01-19T09:33:58;-0.10;99.90
27848;DHT22;15212;48.830;8.730;2023-01-19T09:36:27;-0.10;99.90
27848;DHT22;15212;48.830;8.730;2023-01-19T09:38:55;-0.10;99.90
27848;DHT22;15212;48.830;8.730;2023-01-19T09:41:24;-0.10;99.90
27848;DHT22;15212;48.830;8.730;2023-01-19T09:43:58;-0.20;99.90
27848;DHT22;15212;48.830;8.730;2023-01-19T09:49:31;-0.20;99.90
27848;DHT22;15212;48.830;8.730;2023-01-19T09:52:01;-0.30;99.90
27848;DHT22;15212;48.830;8.730;2023-01-19T09:54:35;-0.30;99.90
27848;DHT22;15212;48.830;8.730;2023-01-19T09:57:14;-0.20;99.90
27848;DHT22;15212;48.830;8.730;2023-01-19T09:59:42;0.00;99.90
27848;DHT22;15212;48.830;8.730;2023-01-19T10:02:29;0.10;99.90
27848;DHT22;15212;48.830;8.730;2023-01-19T10:05:29;0.00;99.90
27848;DHT22;15212;48.830;8.730;2023-01-19T10:13:57;-0.20;99.90
27848;DHT22;15212;48.830;8.730;2023-01-19T10:16:42;-0.30;99.90
27848;DHT22;15212;48.830;8.730;2023-01-19T10:19:26;-0.30;99.90
27848;DHT22;15212;48.830;8.730;2023-01-19T10:21:58;-0.20;99.90
27848;DHT22;15212;48.830;8.730;2023-01-19T10:24:40;0.00;99.90
27848;DHT22;15212;48.830;8.730;2023-01-19T10:27:20;0.20;99.90
27848;DHT22;15212;48.830;8.730;2023-01-19T10:29:50;0.50;99.90
27848;DHT22;15212;48.830;8.730;2023-01-19T10:32:27;0.70;99.90
27848;DHT22;15212;48.830;8.730;2023-01-19T10:34:57;0.90;99.90
27848;DHT22;15212;48.830;8.730;2023-01-19T10:37:36;0.80;99.90
27848;DHT22;15212;48.830;8.730;2023-01-19T10:42:45;0.80;99.90
27848;DHT22;15212;48.830;8.730;2023-01-19T10:45:19;0.70;99.90
27848;DHT22;15212;48.830;8.730;2023-01-19T10:47:48;0.60;99.90
27848;DHT22;15212;48.830;8.730;2023-01-19T10:50:37;0.50;99.90
27848;DHT22;15212;48.830;8.730;2023-01-19T10:53:19;0.40;99.90
27848;DHT22;15212;48.830;8.730;2023-01-19T10:56:07;0.30;99.90
27848;DHT22;15212;48.830;8.730;2023-01-19T10:58:40;0.30;99.90
27848;DHT22;15212;48.830;8.730;2023-01-19T11:01:21;0.30;99.90
27848;DHT22;15212;48.830;8.730;2023-01-19T11:03:51;0.30;99.90
27848;DHT22;15212;48.830;8.730;2023-01-19T11:06:27;0.40;99.90
27848;DHT22;15212;48.830;8.730;2023-01-19T11:09:15;0.40;99.90
27848;DHT22;15212;48.830;8.730;2023-01-19T11:11:49;0.30;99.90
27848;DHT22;15212;48.830;8.730;2023-01-19T11:14:21;0.40;99.90
27848;DHT22;15212;48.830;8.730;2023-01-19T11:16:55;0.50;99.90
27848;DHT22;15212;48.830;8.730;2023-01-19T11:19:29;0.50;99.90
27848;DHT22;15212;48.830;8.730;2023-01-19T11:22:15;0.50;99.90
27848;DHT22;15212;48.830;8.730;2023-01-19T11:24:47;0.50;99.90
27848;DHT22;15212;48.830;8.730;2023-01-19T11:27:18;0.50;99.90
27848;DHT22;15212;48.830;8.730;2023-01-19T11:30:05;0.40;99.90
27848;DHT22;15212;48.830;8.730;2023-01-19T11:32:36;0.40;99.90
27848;DHT22;15212;48.830;8.730;2023-01-19T11:35:32;0.40;99.90
27848;DHT22;15212;48.830;8.730;2023-01-19T11:38:17;0.50;99.90
27848;DHT22;15212;48.830;8.730;2023-01-19T11:40:58;0.50;99.90
27848;DHT22;15212;48.830;8.730;2023-01-19T11:43:27;0.60;99.90
27848;DHT22;15212;48.830;8.730;2023-01-19T11:45:56;0.60;99.90
27848;DHT22;15212;48.830;8.730;2023-01-19T11:48:31;0.60;99.90
27848;DHT22;15212;48.830;8.730;2023-01-19T11:51:02;0.60;99.90
27848;DHT22;15212;48.830;8.730;2023-01-19T11:53:34;0.70;99.90
27848;DHT22;15212;48.830;8.730;2023-01-19T11:56:13;0.80;99.90
27848;DHT22;15212;48.830;8.730;2023-01-19T12:01:31;0.80;99.90
27848;DHT22;15212;48.830;8.730;2023-01-19T12:04:03;0.70;99.90
27848;DHT22;15212;48.830;8.730;2023-01-19T12:06:45;0.70;99.90
27848;DHT22;15212;48.830;8.730;2023-01-19T12:09:21;0.70;99.90
27848;DHT22;15212;48.830;8.730;2023-01-19T12:11:56;0.70;99.90
27848;DHT22;15212;48.830;8.730;2023-01-19T12:14:46;0.70;99.90
27848;DHT22;15212;48.830;8.730;2023-01-19T12:17:23;0.70;99.90
27848;DHT22;15212;48.830;8.730;2023-01-19T12:20:12;0.70;99.90
27848;DHT22;15212;48.830;8.730;2023-01-19T12:22:35;0.60;99.90
27848;DHT22;15212;48.830;8.730;2023-01-19T12:25:12;0.50;99.90
27848;DHT22;15212;48.830;8.730;2023-01-19T12:27:44;0.40;99.90
27848;DHT22;15212;48.830;8.730;2023-01-19T12:30:21;0.30;99.90
27848;DHT22;15212;48.830;8.730;2023-01-19T12:32:54;0.20;99.90
27848;DHT22;15212;48.830;8.730;2023-01-19T12:35:57;0.20;99.90
27848;DHT22;15212;48.830;8.730;2023-01-19T12:38:41;0.10;99.90
27848;DHT22;15212;48.830;8.730;2023-01-19T12:41:31;0.10;99.90
27848;DHT22;15212;48.830;8.730;2023-01-19T12:47:16;0.20;99.90
27848;DHT22;15212;48.830;8.730;2023-01-19T12:49:52;0.20;99.90
27848;DHT22;15212;48.830;8.730;2023-01-19T12:52:31;0.20;99.90
27848;DHT22;15212;48.830;8.730;2023-01-19T12:57:55;0.30;99.90
27848;DHT22;15212;48.830;8.730;2023-01-19T13:00:34;0.40;99.90
27848;DHT22;15212;48.830;8.730;2023-01-19T13:05:53;0.60;99.90
27848;DHT22;15212;48.830;8.730;2023-01-19T13:08:27;0.50;99.90
27848;DHT22;15212;48.830;8.730;2023-01-19T13:13:34;0.50;99.90
27848;DHT22;15212;48.830;8.730;2023-01-19T13:21:42;0.40;99.90
27848;DHT22;15212;48.830;8.730;2023-01-19T13:24:14;0.40;99.90
27848;DHT22;15212;48.830;8.730;2023-01-19T13:26:54;0.40;99.90
27848;DHT22;15212;48.830;8.730;2023-01-19T13:29:36;0.40;99.90
27848;DHT22;15212;48.830;8.730;2023-01-19T13:32:15;0.30;99.90
27848;DHT22;15212;48.830;8.730;2023-01-19T13:34:49;0.30;99.90
27848;DHT22;15212;48.830;8.730;2023-01-19T13:37:27;0.30;99.90
27848;DHT22;15212;48.830;8.730;2023-01-19T13:39:52;0.30;99.90
27848;DHT22;15212;48.830;8.730;2023-01-19T13:42:35;0.30;99.90
27848;DHT22;15212;48.830;8.730;2023-01-19T13:45:19;0.30;99.90
27848;DHT22;15212;48.830;8.730;2023-01-19T13:47:50;0.30;99.90
27848;DHT22;15212;48.830;8.730;2023-01-19T13:50:30;0.20;99.90
27848;DHT22;15212;48.830;8.730;2023-01-19T13:53:00;0.10;99.90
27848;DHT22;15212;48.830;8.730;2023-01-19T13:55:30;0.10;99.90
27848;DHT22;15212;48.830;8.730;2023-01-19T13:57:59;0.00;99.90
27848;DHT22;15212;48.830;8.730;2023-01-19T14:00:30;0.00;99.90
27848;DHT22;15212;48.830;8.730;2023-01-19T14:03:16;0.00;99.90
27848;DHT22;15212;48.830;8.730;2023-01-19T14:05:49;0.00;99.90
27848;DHT22;15212;48.830;8.730;2023-01-19T14:08:18;0.00;99.90
27848;DHT22;15212;48.830;8.730;2023-01-19T14:13:32;0.00;99.90
27848;DHT22;15212;48.830;8.730;2023-01-19T14:16:05;0.00;99.90
27848;DHT22;15212;48.830;8.730;2023-01-19T14:18:36;0.00;99.90
27848;DHT22;15212;48.830;8.730;2023-01-19T14:21:06;0.10;99.90
27848;DHT22;15212;48.830;8.730;2023-01-19T14:23:45;0.10;99.90
27848;DHT22;15212;48.830;8.730;2023-01-19T14:29:30;0.10;99.90
27848;DHT22;15212;48.830;8.730;2023-01-19T14:32:14;0.10;99.90
27848;DHT22;15212;48.830;8.730;2023-01-19T14:34:49;0.20;99.90
27848;DHT22;15212;48.830;8.730;2023-01-19T14:37:29;0.20;99.90
27848;DHT22;15212;48.830;8.730;2023-01-19T14:40:02;0.20;99.90
27848;DHT22;15212;48.830;8.730;2023-01-19T14:42:42;0.20;99.90
27848;DHT22;15212;48.830;8.730;2023-01-19T14:45:18;0.20;99.90
27848;DHT22;15212;48.830;8.730;2023-01-19T14:47:45;0.20;99.90
27848;DHT22;15212;48.830;8.730;2023-01-19T14:53:19;0.10;99.90
27848;DHT22;15212;48.830;8.730;2023-01-19T14:55:59;0.10;99.90
27848;DHT22;15212;48.830;8.730;2023-01-19T14:58:33;0.10;99.90
27848;DHT22;15212;48.830;8.730;2023-01-19T15:01:02;0.10;99.90
27848;DHT22;15212;48.830;8.730;2023-01-19T15:03:31;0.10;99.90
27848;DHT22;15212;48.830;8.730;2023-01-19T15:06:00;0.10;99.90
27848;DHT22;15212;48.830;8.730;2023-01-19T15:08:31;0.00;99.90
27848;DHT22;15212;48.830;8.730;2023-01-19T15:11:26;0.00;99.90
27848;DHT22;15212;48.830;8.730;2023-01-19T15:13:46;-0.10;99.90
27848;DHT22;15212;48.830;8.730;2023-01-19T15:16:15;-0.10;99.90
27848;DHT22;15212;48.830;8.730;2023-01-19T15:18:44;-0.10;99.90
27848;DHT22;15212;48.830;8.730;2023-01-19T15:21:17;-0.10;99.90
27848;DHT22;15212;48.830;8.730;2023-01-19T15:23:49;-0.10;99.90
27848;DHT22;15212;48.830;8.730;2023-01-19T15:26:27;-0.10;99.90
27848;DHT22;15212;48.830;8.730;2023-01-19T15:28:53;-0.20;99.90
27848;DHT22;15212;48.830;8.730;2023-01-19T15:31:24;-0.20;99.90
27848;DHT22;15212;48.830;8.730;2023-01-19T15:33:53;-0.20;99.90
27848;DHT22;15212;48.830;8.730;2023-01-19T15:36:22;-0.30;99.90
27848;DHT22;15212;48.830;8.730;2023-01-19T15:38:51;-0.20;99.90
27848;DHT22;15212;48.830;8.730;2023-01-19T15:41:24;-0.30;99.90
27848;DHT22;15212;48.830;8.730;2023-01-19T15:43:55;-0.40;99.90
27848;DHT22;15212;48.830;8.730;2023-01-19T15:46:24;-0.40;99.90
27848;DHT22;15212;48.830;8.730;2023-01-19T15:48:53;-0.40;99.90
27848;DHT22;15212;48.830;8.730;2023-01-19T15:51:23;-0.40;99.90
27848;DHT22;15212;48.830;8.730;2023-01-19T15:53:53;-0.40;99.90
27848;DHT22;15212;48.830;8.730;2023-01-19T15:56:24;-0.40;99.90
27848;DHT22;15212;48.830;8.730;2023-01-19T15:58:54;-0.30;99.90
27848;DHT22;15212;48.830;8.730;2023-01-19T16:01:25;-0.30;99.90
27848;DHT22;15212;48.830;8.730;2023-01-19T16:04:02;-0.30;99.90
27848;DHT22;15212;48.830;8.730;2023-01-19T16:06:32;-0.20;99.90
27848;DHT22;15212;48.830;8.730;2023-01-19T16:09:00;-0.10;99.90
27848;DHT22;15212;48.830;8.730;2023-01-19T16:11:31;0.00;99.90
27848;DHT22;15212;48.830;8.730;2023-01-19T16:14:01;0.00;99.90
27848;DHT22;15212;48.830;8.730;2023-01-19T16:16:29;-0.10;99.90
27848;DHT22;15212;48.830;8.730;2023-01-19T16:18:58;-0.10;99.90
27848;DHT22;15212;48.830;8.730;2023-01-19T16:21:26;-0.10;99.90
27848;DHT22;15212;48.830;8.730;2023-01-19T16:23:55;-0.10;99.90
27848;DHT22;15212;48.830;8.730;2023-01-19T16:26:29;-0.20;99.90
27848;DHT22;15212;48.830;8.730;2023-01-19T16:29:04;-0.20;99.90
27848;DHT22;15212;48.830;8.730;2023-01-19T16:31:36;-0.30;99.90
27848;DHT22;15212;48.830;8.730;2023-01-19T16:34:06;-0.30;99.90
27848;DHT22;15212;48.830;8.730;2023-01-19T16:36:37;-0.40;99.90
27848;DHT22;15212;48.830;8.730;2023-01-19T16:39:09;-0.40;99.90
27848;DHT22;15212;48.830;8.730;2023-01-19T16:41:40;-0.50;99.90
27848;DHT22;15212;48.830;8.730;2023-01-19T16:44:12;-0.50;99.90
27848;DHT22;15212;48.830;8.730;2023-01-19T16:46:43;-0.60;99.90
27848;DHT22;15212;48.830;8.730;2023-01-19T16:49:21;-0.60;99.90
27848;DHT22;15212;48.830;8.730;2023-01-19T16:51:50;-0.70;99.90
27848;DHT22;15212;48.830;8.730;2023-01-19T16:54:22;-0.80;99.90
27848;DHT22;15212;48.830;8.730;2023-01-19T16:56:53;-0.90;99.90
27848;DHT22;15212;48.830;8.730;2023-01-19T16:59:22;-1.10;99.90